Time;durP1;ratioP1;P1;durP2;ratioP2;P2;SDS_P1;SDS_P2;PMS_P1;PMS_P2;Temp;Humidity;BMP_temperature;BMP_pressure;BME280_temperature;BME280_humidity;BME280_pressure;Samples;Min_cycle;Max_cycle;Signal;HPM_P1;HPM_P2
2023/03/11 00:02:10;;;;;;;8.25;2.58;;;0.10;99.90;;;;;;5071122;28;20050;-80
2023/03/11 00:04:36;;;;;;;9.23;3.10;;;0.10;99.90;;;;;;5066017;28;20049;-80
2023/03/11 00:07:05;;;;;;;6.63;2.35;;;0.20;99.90;;;;;;5086555;28;20383;-80
2023/03/11 00:09:34;;;;;;;7.45;2.30;;;0.40;99.90;;;;;;5083682;28;20052;-80
2023/03/11 00:12:00;;;;;;;8.05;2.30;;;0.20;99.90;;;;;;5086659;28;20044;-80
2023/03/11 00:14:26;;;;;;;6.18;1.90;;;0.10;99.90;;;;;;5085208;28;20045;-80
2023/03/11 00:16:52;;;;;;;8.77;2.20;;;0.40;99.90;;;;;;5108018;28;20059;-80
2023/03/11 00:19:18;;;;;;;8.43;2.55;;;0.50;99.90;;;;;;5076727;28;20056;-80
2023/03/11 00:21:43;;;;;;;8.40;2.60;;;0.20;99.90;;;;;;5091262;28;20063;-79
2023/03/11 00:24:09;;;;;;;9.50;2.80;;;0.20;99.90;;;;;;5087819;28;20045;-80
2023/03/11 00:26:35;;;;;;;8.80;2.92;;;0.20;99.90;;;;;;5090368;28;20055;-80
2023/03/11 00:29:00;;;;;;;8.70;2.50;;;0.20;99.90;;;;;;5083693;28;20053;-84
2023/03/11 00:31:27;;;;;;;7.50;2.10;;;0.20;99.90;;;;;;5059467;28;20121;-80
2023/03/11 00:33:53;;;;;;;7.53;2.20;;;1.00;99.90;;;;;;5092484;28;20055;-79
2023/03/11 00:36:23;;;;;;;7.35;2.00;;;0.20;99.90;;;;;;5074404;28;20048;-84
2023/03/11 00:38:49;;;;;;;10.55;2.03;;;0.20;99.90;;;;;;5091357;28;20051;-79
2023/03/11 00:41:15;;;;;;;7.05;1.98;;;0.30;99.90;;;;;;5077226;28;20059;-80
2023/03/11 00:43:41;;;;;;;11.05;2.40;;;0.20;99.90;;;;;;5091364;28;20044;-79
2023/03/11 00:46:08;;;;;;;7.72;1.90;;;0.30;99.90;;;;;;5074329;28;20097;-79
2023/03/11 00:48:33;;;;;;;8.20;2.00;;;0.70;99.90;;;;;;5073363;28;20101;-79
2023/03/11 00:50:59;;;;;;;6.85;1.98;;;0.50;99.90;;;;;;5092486;28;20249;-79
2023/03/11 00:53:25;;;;;;;7.97;2.10;;;0.30;99.90;;;;;;5090407;28;20079;-80
2023/03/11 00:55:51;;;;;;;8.60;2.10;;;0.30;99.90;;;;;;5082530;28;20060;-79
2023/03/11 00:58:17;;;;;;;7.40;2.00;;;0.40;99.90;;;;;;5087182;28;21340;-79
2023/03/11 01:00:43;;;;;;;8.00;1.90;;;0.50;99.90;;;;;;5055215;28;20044;-79
2023/03/11 01:03:08;;;;;;;8.77;1.88;;;0.30;99.90;;;;;;5082752;28;20045;-79
2023/03/11 01:05:34;;;;;;;6.85;2.10;;;0.40;99.90;;;;;;5076742;28;20546;-79
2023/03/11 01:08:01;;;;;;;7.15;2.00;;;0.30;99.90;;;;;;5085139;28;20041;-79
2023/03/11 01:10:29;;;;;;;10.95;2.03;;;0.30;99.90;;;;;;5075678;28;20499;-79
2023/03/11 01:12:55;;;;;;;11.93;2.28;;;1.30;99.90;;;;;;5094696;28;20484;-79
2023/03/11 01:15:24;;;;;;;7.68;1.90;;;0.30;99.90;;;;;;5094762;28;20048;-78
2023/03/11 01:17:50;;;;;;;8.02;1.95;;;0.40;99.90;;;;;;5087676;28;20119;-79
2023/03/11 01:20:16;;;;;;;8.75;2.03;;;0.30;99.90;;;;;;5087831;28;20198;-79
2023/03/11 01:22:42;;;;;;;12.13;2.15;;;0.20;99.90;;;;;;5092881;28;20144;-79
2023/03/11 01:25:11;;;;;;;9.13;1.73;;;0.20;99.90;;;;;;5059943;28;20070;-79
2023/03/11 01:27:37;;;;;;;7.32;1.95;;;1.00;99.90;;;;;;5074684;28;20080;-79
2023/03/11 01:30:03;;;;;;;10.68;2.20;;;0.30;99.90;;;;;;5095761;28;20148;-79
2023/03/11 01:32:29;;;;;;;9.23;1.90;;;0.20;99.90;;;;;;5093787;28;20048;-77
2023/03/11 01:34:55;;;;;;;10.43;2.25;;;0.20;99.90;;;;;;5077590;28;20059;-79
2023/03/11 01:37:21;;;;;;;9.90;2.13;;;0.20;99.90;;;;;;5078481;28;20048;-79
2023/03/11 01:39:46;;;;;;;11.65;2.50;;;0.70;99.90;;;;;;5075408;28;20396;-78
2023/03/11 01:42:12;;;;;;;8.70;2.00;;;0.20;99.90;;;;;;5073742;28;20139;-78
2023/03/11 01:44:38;;;;;;;9.15;2.13;;;0.20;99.90;;;;;;5070150;28;20551;-79
2023/03/11 01:47:03;;;;;;;9.45;2.00;;;0.20;99.90;;;;;;5088827;28;20052;-79
2023/03/11 01:49:29;;;;;;;8.00;1.80;;;0.20;99.90;;;;;;5085701;28;20446;-79
2023/03/11 01:52:02;;;;;;;7.63;1.73;;;0.20;99.90;;;;;;5062813;28;20105;-79
2023/03/11 01:54:34;;;;;;;10.02;1.98;;;0.10;99.90;;;;;;5084432;28;20063;-79
2023/03/11 01:57:04;;;;;;;7.10;1.80;;;0.90;99.90;;;;;;5059105;28;20056;-79
2023/03/11 01:59:35;;;;;;;8.93;1.80;;;0.70;99.90;;;;;;5095137;28;20052;-79
2023/03/11 02:02:08;;;;;;;5.82;1.70;;;0.30;99.90;;;;;;5093747;28;20131;-79
2023/03/11 02:04:35;;;;;;;9.30;1.88;;;0.10;99.90;;;;;;5095084;28;20078;-79
2023/03/11 02:07:02;;;;;;;7.88;1.80;;;0.40;99.90;;;;;;5076233;28;20058;-79
2023/03/11 02:09:28;;;;;;;6.22;1.80;;;0.00;99.90;;;;;;5073555;28;20063;-79
2023/03/11 02:11:54;;;;;;;7.95;1.90;;;0.40;99.90;;;;;;5073172;28;20052;-80
2023/03/11 02:14:20;;;;;;;6.70;1.90;;;0.30;99.90;;;;;;5092789;28;20040;-79
2023/03/11 02:16:46;;;;;;;6.75;1.80;;;0.10;99.90;;;;;;5092841;28;20056;-79
2023/03/11 02:19:37;;;;;;;11.27;1.85;;;1.10;99.90;;;;;;5073921;28;20064;-79
2023/03/11 02:22:03;;;;;;;7.80;1.88;;;0.10;99.90;;;;;;5087498;28;20391;-80
2023/03/11 02:24:58;;;;;;;9.88;1.90;;;1.00;99.90;;;;;;5087079;28;20123;-79
2023/03/11 02:27:25;;;;;;;10.05;1.80;;;0.00;99.90;;;;;;5086930;28;20050;-79
2023/03/11 02:29:52;;;;;;;8.18;1.77;;;0.00;99.90;;;;;;5094787;28;20135;-78
2023/03/11 02:32:19;;;;;;;7.97;1.92;;;0.10;99.90;;;;;;5077266;28;20061;-80
2023/03/11 02:34:44;;;;;;;6.70;1.73;;;0.90;99.90;;;;;;5072928;28;20043;-79
2023/03/11 02:37:13;;;;;;;8.02;1.80;;;0.00;99.90;;;;;;5093188;28;20043;-80
2023/03/11 02:39:45;;;;;;;9.27;1.75;;;0.00;99.90;;;;;;5092854;28;20044;-79
2023/03/11 02:42:18;;;;;;;7.43;1.90;;;0.10;99.90;;;;;;5080781;28;20048;-79
2023/03/11 02:44:45;;;;;;;;;;;0.00;99.90;;;;;;5091928;28;20052;-79
2023/03/11 02:47:11;;;;;;;7.15;1.70;;;0.40;99.90;;;;;;5092025;28;19920;-79
2023/03/11 02:49:38;;;;;;;7.53;1.73;;;0.70;99.90;;;;;;5088890;28;20040;-82
2023/03/11 02:52:04;;;;;;;6.15;1.75;;;0.80;99.90;;;;;;5091769;28;20127;-79
2023/03/11 02:54:30;;;;;;;8.00;1.90;;;-0.10;99.90;;;;;;5087956;28;20044;-79
2023/03/11 02:56:56;;;;;;;7.55;1.80;;;-0.10;99.90;;;;;;5083748;28;20044;-79
2023/03/11 02:59:21;;;;;;;5.80;1.50;;;-0.20;99.90;;;;;;5089278;28;20055;-78
2023/03/11 03:01:47;;;;;;;8.30;1.85;;;0.10;99.90;;;;;;5087630;28;20052;-80
2023/03/11 03:04:13;;;;;;;7.55;1.70;;;0.00;99.90;;;;;;5075978;28;20494;-78
2023/03/11 03:06:38;;;;;;;7.13;1.70;;;-0.40;99.90;;;;;;5092990;28;20097;-79
2023/03/11 03:09:04;;;;;;;5.55;1.70;;;0.00;99.90;;;;;;5055453;28;20551;-78
2023/03/11 03:11:30;;;;;;;7.20;1.70;;;-0.10;99.90;;;;;;5072379;28;20052;-78
2023/03/11 03:13:56;;;;;;;6.65;1.60;;;-0.60;99.90;;;;;;5085711;28;20484;-78
2023/03/11 03:16:23;;;;;;;6.20;1.80;;;-0.60;99.90;;;;;;5081948;28;20097;-78
2023/03/11 03:18:50;;;;;;;6.32;1.60;;;-0.70;99.90;;;;;;5091871;28;20048;-78
2023/03/11 03:21:16;;;;;;;8.18;1.70;;;-0.70;99.90;;;;;;5091918;28;20083;-78
2023/03/11 03:23:41;;;;;;;6.15;1.50;;;-0.60;99.90;;;;;;5075312;28;20082;-79
2023/03/11 03:26:07;;;;;;;7.95;1.73;;;-0.80;99.90;;;;;;5092041;28;20407;-78
2023/03/11 03:28:33;;;;;;;9.55;1.60;;;-0.50;99.90;;;;;;5071179;28;20049;-78
2023/03/11 03:31:06;;;;;;;7.22;1.60;;;-0.80;99.90;;;;;;5059156;28;20046;-78
2023/03/11 03:33:32;;;;;;;7.10;1.40;;;-0.80;99.90;;;;;;5091108;28;20060;-78
2023/03/11 03:35:58;;;;;;;4.70;1.30;;;-0.80;99.90;;;;;;5091621;28;20052;-79
2023/03/11 03:38:24;;;;;;;7.15;1.70;;;-0.70;99.90;;;;;;5093175;28;20074;-78
2023/03/11 03:40:50;;;;;;;7.43;1.50;;;-0.50;99.90;;;;;;5092962;28;20052;-77
2023/03/11 03:43:15;;;;;;;10.25;1.65;;;-0.90;99.90;;;;;;5077462;28;20483;-78
2023/03/11 03:45:41;;;;;;;10.23;1.60;;;-0.90;99.90;;;;;;5092261;28;20052;-77
2023/03/11 03:48:07;;;;;;;5.15;1.50;;;-0.90;99.90;;;;;;5091601;28;20055;-78
2023/03/11 03:50:33;;;;;;;5.57;1.50;;;-0.60;99.90;;;;;;5075238;28;20543;-77
2023/03/11 03:52:58;;;;;;;8.15;1.75;;;-0.10;99.90;;;;;;5091480;28;20040;-77
2023/03/11 03:55:24;;;;;;;7.38;1.63;;;-1.20;99.90;;;;;;5071548;28;20124;-77
2023/03/11 03:57:50;;;;;;;5.55;1.38;;;-1.20;99.90;;;;;;5071420;28;20045;-76
2023/03/11 04:00:16;;;;;;;6.00;1.50;;;-0.80;99.90;;;;;;5071388;28;20145;-77
2023/03/11 04:02:42;;;;;;;6.93;1.58;;;-1.40;99.90;;;;;;5053834;28;20052;-77
2023/03/11 04:05:08;;;;;;;6.95;1.50;;;-1.40;99.90;;;;;;5090936;28;20040;-76
2023/03/11 04:07:35;;;;;;;7.88;1.40;;;-1.50;99.90;;;;;;5092729;28;20127;-78
2023/03/11 04:10:01;;;;;;;9.40;1.77;;;-0.50;99.90;;;;;;5091351;28;20502;-77
2023/03/11 04:12:26;;;;;;;9.07;1.70;;;-0.90;99.90;;;;;;5091373;28;20071;-76
2023/03/11 04:14:52;;;;;;;6.18;1.58;;;-1.60;99.90;;;;;;5091115;28;20487;-77
2023/03/11 04:17:18;;;;;;;9.75;1.70;;;-1.70;99.90;;;;;;5091933;28;20048;-76
2023/03/11 04:19:44;;;;;;;6.43;1.55;;;-1.70;99.90;;;;;;5091504;28;20052;-76
2023/03/11 04:22:10;;;;;;;6.70;1.63;;;-1.70;99.90;;;;;;5091944;28;20822;-76
2023/03/11 04:24:35;;;;;;;6.88;1.73;;;-1.70;99.90;;;;;;5091362;28;20406;-76
2023/03/11 04:27:01;;;;;;;9.25;1.80;;;-1.80;99.90;;;;;;5091043;28;20070;-76
2023/03/11 04:29:27;;;;;;;6.50;1.60;;;-1.80;99.90;;;;;;5091573;28;20040;-76
2023/03/11 04:31:53;;;;;;;5.88;1.67;;;-1.90;99.90;;;;;;5091698;28;20048;-76
2023/03/11 04:34:19;;;;;;;7.32;1.65;;;-1.90;99.90;;;;;;5092589;28;20044;-76
2023/03/11 04:36:45;;;;;;;4.53;1.63;;;-1.70;99.90;;;;;;5092319;28;20052;-76
2023/03/11 04:39:11;;;;;;;7.07;1.85;;;-2.00;99.90;;;;;;5075853;28;20059;-76
2023/03/11 04:41:36;;;;;;;7.25;1.92;;;-2.00;99.90;;;;;;5088086;28;20455;-76
2023/03/11 04:44:02;;;;;;;8.68;1.80;;;-1.80;99.90;;;;;;5085268;28;20050;-76
2023/03/11 04:46:28;;;;;;;5.78;1.70;;;-2.00;99.90;;;;;;5079626;28;20450;-77
2023/03/11 04:48:54;;;;;;;5.80;1.50;;;-2.10;99.90;;;;;;5070109;28;20071;-76
2023/03/11 04:51:19;;;;;;;5.78;1.60;;;-2.10;99.90;;;;;;5088772;28;20097;-77
2023/03/11 04:53:45;;;;;;;5.55;1.75;;;-1.70;99.90;;;;;;5096362;28;20174;-77
2023/03/11 04:56:11;;;;;;;6.35;1.50;;;-2.10;99.90;;;;;;5096363;28;20632;-76
2023/03/11 04:58:36;;;;;;;6.50;1.50;;;-2.10;99.90;;;;;;5077426;28;20052;-76
2023/03/11 05:01:02;;;;;;;9.10;1.60;;;-2.10;99.90;;;;;;5078224;28;20040;-76
2023/03/11 05:03:28;;;;;;;6.30;1.80;;;-2.10;99.90;;;;;;5077113;28;20510;-76
2023/03/11 05:05:55;;;;;;;9.25;1.70;;;-1.50;99.90;;;;;;5096573;28;20127;-76
2023/03/11 05:08:22;;;;;;;5.15;1.67;;;-1.10;99.90;;;;;;5091512;28;20146;-76
2023/03/11 05:10:50;;;;;;;6.88;1.70;;;-2.20;99.90;;;;;;5075909;28;20052;-76
2023/03/11 05:13:15;;;;;;;6.32;1.60;;;-2.30;99.90;;;;;;5075102;28;20500;-76
2023/03/11 05:15:41;;;;;;;5.18;1.40;;;-2.30;99.90;;;;;;5094998;28;20083;-76
2023/03/11 05:18:07;;;;;;;7.68;1.67;;;-2.30;99.90;;;;;;5093874;28;20052;-76
2023/03/11 05:20:33;;;;;;;5.05;1.50;;;-2.10;99.90;;;;;;5093900;28;20055;-76
2023/03/11 05:22:58;;;;;;;6.72;1.90;;;-2.10;99.90;;;;;;5094552;28;20048;-75
2023/03/11 05:25:25;;;;;;;6.53;1.67;;;-2.30;99.90;;;;;;5094376;28;20464;-76
2023/03/11 05:27:50;;;;;;;8.13;1.70;;;-2.30;99.90;;;;;;5094308;28;20480;-76
2023/03/11 05:30:16;;;;;;;4.60;1.60;;;-2.40;99.90;;;;;;5077258;28;20055;-76
2023/03/11 05:32:42;;;;;;;7.32;1.73;;;-2.40;99.90;;;;;;5094973;28;20101;-76
2023/03/11 05:35:08;;;;;;;6.07;1.55;;;-2.40;99.90;;;;;;5094376;28;20044;-76
2023/03/11 05:37:34;;;;;;;6.57;1.65;;;-2.40;99.90;;;;;;5093660;28;20058;-76
2023/03/11 05:40:00;;;;;;;7.72;1.63;;;-2.40;99.90;;;;;;5074438;28;20052;-76
2023/03/11 05:42:25;;;;;;;7.30;1.80;;;-2.40;99.90;;;;;;5063750;28;20110;-76
2023/03/11 05:44:51;;;;;;;6.50;1.67;;;-2.40;99.90;;;;;;5090706;28;20081;-76
2023/03/11 05:47:18;;;;;;;5.90;1.50;;;-1.80;99.90;;;;;;5093455;28;20040;-76
2023/03/11 05:49:47;;;;;;;6.40;1.70;;;-1.30;99.90;;;;;;5094265;28;20059;-77
2023/03/11 05:52:12;;;;;;;5.38;1.60;;;-2.50;99.90;;;;;;5069297;28;20059;-76
2023/03/11 05:54:38;;;;;;;8.43;1.75;;;-2.50;99.90;;;;;;5074757;28;20044;-77
2023/03/11 05:57:04;;;;;;;8.35;2.10;;;-1.70;99.90;;;;;;5093112;28;20036;-76
2023/03/11 05:59:31;;;;;;;6.43;1.60;;;-2.50;99.90;;;;;;5081217;28;20132;-77
2023/03/11 06:01:57;;;;;;;9.88;2.03;;;-2.50;99.90;;;;;;5078634;28;20051;-76
2023/03/11 06:04:23;;;;;;;8.68;1.80;;;-2.50;99.90;;;;;;5093887;28;20040;-76
2023/03/11 06:06:49;;;;;;;5.35;1.60;;;-2.30;99.90;;;;;;5075068;28;20042;-77
2023/03/11 06:09:15;;;;;;;8.85;1.80;;;-2.50;99.90;;;;;;5083636;28;20059;-77
2023/03/11 06:11:41;;;;;;;6.72;1.65;;;-2.60;99.90;;;;;;5090788;28;20425;-77
2023/03/11 06:14:09;;;;;;;7.03;2.00;;;-2.30;99.90;;;;;;5081626;28;20506;-77
2023/03/11 06:16:35;;;;;;;5.88;1.80;;;-1.70;99.90;;;;;;5093405;28;20473;-77
2023/03/11 06:19:01;;;;;;;8.88;2.10;;;-2.10;99.90;;;;;;5093241;28;20048;-78
2023/03/11 06:21:27;;;;;;;6.13;1.75;;;-2.50;99.90;;;;;;5086363;28;20051;-77
2023/03/11 06:23:53;;;;;;;5.65;1.55;;;-2.50;99.90;;;;;;5078695;28;20044;-77
2023/03/11 06:26:20;;;;;;;5.55;1.73;;;-2.50;99.90;;;;;;5089706;28;20461;-78
2023/03/11 06:28:47;;;;;;;4.93;1.60;;;-2.40;99.90;;;;;;5092104;28;20128;-77
2023/03/11 06:31:16;;;;;;;6.85;1.85;;;-2.00;99.90;;;;;;5090002;28;20051;-77
2023/03/11 06:33:41;;;;;;;5.13;1.90;;;-2.30;99.90;;;;;;5088190;28;20491;-77
2023/03/11 06:36:09;;;;;;;10.52;3.00;;;-2.30;99.90;;;;;;5086996;28;20064;-77
2023/03/11 06:38:35;;;;;;;10.70;3.50;;;-2.30;99.90;;;;;;5087396;28;20087;-77
2023/03/11 06:41:02;;;;;;;7.03;2.70;;;-2.20;99.90;;;;;;5081926;28;20459;-77
2023/03/11 06:43:30;;;;;;;7.18;2.35;;;-2.20;99.90;;;;;;5090400;28;20479;-77
2023/03/11 06:45:56;;;;;;;6.75;2.30;;;-2.10;99.90;;;;;;5091929;28;20122;-77
2023/03/11 06:48:22;;;;;;;9.02;2.60;;;-2.00;99.90;;;;;;5088470;28;20400;-77
2023/03/11 06:50:59;;;;;;;7.00;3.00;;;-1.50;99.90;;;;;;5072165;28;20101;-77
2023/03/11 06:53:26;;;;;;;8.75;2.80;;;-1.00;99.90;;;;;;5090763;28;20405;-77
2023/03/11 06:56:00;;;;;;;7.10;2.30;;;-0.40;99.90;;;;;;5091593;28;20056;-77
2023/03/11 06:58:26;;;;;;;5.97;2.15;;;-0.20;99.90;;;;;;5081432;28;20048;-77
2023/03/11 07:00:52;;;;;;;9.40;2.35;;;0.50;99.90;;;;;;5098073;28;20071;-77
2023/03/11 07:03:18;;;;;;;5.78;1.90;;;0.30;99.90;;;;;;5062121;28;20044;-77
2023/03/11 07:05:44;;;;;;;6.95;2.00;;;0.40;99.90;;;;;;5082184;28;20056;-78
2023/03/11 07:08:09;;;;;;;6.72;1.92;;;0.30;99.90;;;;;;5092620;28;20055;-77
2023/03/11 07:10:35;;;;;;;6.75;1.80;;;0.70;99.90;;;;;;5079218;28;20062;-78
2023/03/11 07:13:01;;;;;;;6.45;1.90;;;0.70;99.90;;;;;;5090618;28;20036;-77
2023/03/11 07:15:27;;;;;;;10.07;1.88;;;0.30;99.90;;;;;;5091410;28;20040;-77
2023/03/11 07:17:53;;;;;;;5.30;1.70;;;0.50;99.90;;;;;;5092395;28;20443;-77
2023/03/11 07:20:18;;;;;;;5.68;1.50;;;0.20;99.90;;;;;;5084809;28;20362;-77
2023/03/11 07:22:44;;;;;;;7.18;1.70;;;0.30;99.90;;;;;;5082365;28;20059;-77
2023/03/11 07:25:10;;;;;;;7.15;1.67;;;0.20;99.90;;;;;;5087126;28;20040;-77
2023/03/11 07:27:36;;;;;;;5.50;1.73;;;0.20;99.90;;;;;;5079094;28;20052;-77
2023/03/11 07:30:01;;;;;;;7.45;1.60;;;0.60;99.90;;;;;;5092225;28;20044;-77
2023/03/11 07:32:27;;;;;;;5.30;1.50;;;0.30;99.90;;;;;;5077699;28;20045;-77
2023/03/11 07:34:53;;;;;;;5.45;1.75;;;0.40;99.90;;;;;;5075988;28;20463;-77
2023/03/11 07:37:19;;;;;;;5.93;1.70;;;0.70;99.90;;;;;;5091630;28;20048;-77
2023/03/11 07:39:45;;;;;;;6.10;1.83;;;0.70;99.90;;;;;;5082597;28;20492;-77
2023/03/11 07:42:10;;;;;;;5.32;1.70;;;0.80;99.90;;;;;;5072494;28;20098;-77
2023/03/11 07:44:36;;;;;;;7.05;1.60;;;0.80;99.90;;;;;;5085574;28;20047;-78
2023/03/11 07:47:05;;;;;;;5.20;1.60;;;1.00;99.90;;;;;;5077247;28;20105;-78
2023/03/11 07:49:31;;;;;;;6.10;1.73;;;1.20;99.90;;;;;;5077065;28;20052;-77
2023/03/11 07:51:57;;;;;;;5.78;1.50;;;2.50;99.90;;;;;;5083232;28;20037;-77
2023/03/11 07:54:23;;;;;;;7.85;1.80;;;1.70;99.90;;;;;;5069215;28;20040;-77
2023/03/11 07:56:49;;;;;;;6.38;1.65;;;1.60;99.90;;;;;;5084330;28;20128;-77
2023/03/11 07:59:14;;;;;;;8.05;1.80;;;1.70;99.90;;;;;;5080080;28;20458;-77
2023/03/11 08:01:45;;;;;;;7.45;1.83;;;1.90;99.90;;;;;;5087773;28;20046;-77
2023/03/11 08:04:12;;;;;;;5.65;1.50;;;1.90;99.90;;;;;;5074178;28;20546;-77
2023/03/11 08:06:41;;;;;;;8.63;1.92;;;1.90;99.90;;;;;;5059436;28;20122;-78
2023/03/11 08:09:08;;;;;;;6.20;1.80;;;2.00;99.90;;;;;;5091833;28;20066;-77
2023/03/11 08:11:35;;;;;;;5.47;1.65;;;2.10;99.90;;;;;;5091390;28;20453;-78
2023/03/11 08:14:01;;;;;;;4.15;1.25;;;2.30;99.90;;;;;;5092544;28;20459;-77
2023/03/11 08:16:28;;;;;;;7.78;1.60;;;2.40;99.90;;;;;;5095105;28;20499;-77
2023/03/11 08:18:54;;;;;;;6.07;1.67;;;2.80;99.90;;;;;;5097549;28;20059;-77
2023/03/11 08:21:25;;;;;;;5.35;1.58;;;2.60;99.90;;;;;;5088881;28;20052;-77
2023/03/11 08:23:55;;;;;;;7.47;1.42;;;2.60;99.90;;;;;;5084554;28;20048;-77
2023/03/11 08:26:21;;;;;;;10.98;1.73;;;2.60;99.90;;;;;;5095889;28;20044;-77
2023/03/11 08:28:48;;;;;;;5.18;1.63;;;2.80;99.90;;;;;;5083428;28;20060;-77
2023/03/11 08:31:19;;;;;;;6.45;1.60;;;2.80;99.90;;;;;;5087132;28;20095;-77
2023/03/11 08:33:51;;;;;;;7.05;1.50;;;2.80;99.90;;;;;;5098799;28;20055;-76
2023/03/11 08:36:18;;;;;;;10.00;1.80;;;2.90;99.90;;;;;;5075196;28;20395;-77
2023/03/11 08:38:44;;;;;;;5.80;1.67;;;2.90;99.90;;;;;;5089916;28;20414;-77
2023/03/11 08:41:10;;;;;;;6.97;1.60;;;3.00;99.90;;;;;;5080297;28;20127;-77
2023/03/11 08:43:36;;;;;;;5.78;1.67;;;3.10;99.90;;;;;;5063813;28;20083;-76
2023/03/11 08:46:05;;;;;;;5.28;1.40;;;3.20;99.90;;;;;;5077643;28;20114;-76
2023/03/11 08:48:31;;;;;;;6.00;1.77;;;3.20;99.90;;;;;;5095928;28;20043;-76
2023/03/11 08:50:57;;;;;;;5.53;1.45;;;3.30;99.90;;;;;;5086669;28;20045;-76
2023/03/11 08:53:24;;;;;;;8.40;1.85;;;3.20;99.90;;;;;;5077227;28;20047;-76
2023/03/11 08:55:51;;;;;;;5.68;1.70;;;3.40;99.90;;;;;;5098090;28;20432;-75
2023/03/11 08:58:17;;;;;;;7.10;1.50;;;3.50;99.90;;;;;;5065608;28;20520;-76
2023/03/11 09:00:43;;;;;;;6.28;1.63;;;3.70;99.90;;;;;;5104094;28;20412;-75
2023/03/11 09:03:09;;;;;;;6.20;1.52;;;4.10;99.90;;;;;;5094508;28;20206;-76
2023/03/11 09:05:35;;;;;;;6.47;1.50;;;4.50;99.90;;;;;;5068805;28;20123;-75
2023/03/11 09:08:02;;;;;;;6.63;1.73;;;4.80;99.90;;;;;;5097860;28;20426;-75
2023/03/11 09:10:28;;;;;;;6.78;1.75;;;5.70;99.90;;;;;;5083657;28;20114;-74
2023/03/11 09:12:54;;;;;;;5.38;1.40;;;5.40;99.90;;;;;;5097735;28;20052;-74
2023/03/11 09:15:19;;;;;;;5.68;1.35;;;5.60;99.90;;;;;;5084380;28;20556;-74
2023/03/11 09:17:45;;;;;;;5.93;1.40;;;5.70;99.90;;;;;;5087557;28;20532;-76
2023/03/11 09:20:12;;;;;;;6.85;1.50;;;5.80;99.90;;;;;;5093323;28;20102;-76
2023/03/11 09:22:38;;;;;;;7.50;1.50;;;5.90;99.90;;;;;;5098656;28;20135;-76
2023/03/11 09:25:04;;;;;;;6.43;1.63;;;6.10;99.90;;;;;;5093930;28;20507;-75
2023/03/11 09:27:30;;;;;;;7.47;1.70;;;6.60;99.90;;;;;;5089171;28;20052;-74
2023/03/11 09:29:56;;;;;;;4.63;1.50;;;6.70;99.90;;;;;;5095873;28;20040;-75
2023/03/11 09:32:21;;;;;;;6.90;1.70;;;7.00;99.90;;;;;;5092716;28;20483;-74
2023/03/11 09:34:47;;;;;;;6.55;1.45;;;7.10;99.90;;;;;;5084414;28;20044;-75
2023/03/11 09:37:13;;;;;;;6.80;1.50;;;7.20;99.90;;;;;;5090416;28;20381;-74
2023/03/11 09:39:39;;;;;;;7.40;1.60;;;7.20;99.90;;;;;;5068853;28;20080;-74
2023/03/11 09:42:29;;;;;;;6.07;1.60;;;7.30;99.90;;;;;;5081431;28;20045;-75
2023/03/11 09:45:10;;;;;;;7.15;1.83;;;7.30;99.90;;;;;;5076711;28;20047;-74
2023/03/11 09:48:15;;;;;;;5.85;1.58;;;7.40;99.90;;;;;;5065012;28;20052;-73
2023/03/11 09:50:48;;;;;;;6.68;1.58;;;7.70;99.90;;;;;;5067505;28;20109;-73
2023/03/11 09:53:46;;;;;;;5.60;1.40;;;8.20;99.90;;;;;;5074825;28;20494;-73
2023/03/11 09:56:16;;;;;;;6.03;1.52;;;8.50;99.90;;;;;;5092510;28;20078;-73
2023/03/11 09:58:53;;;;;;;5.70;1.60;;;8.60;99.90;;;;;;5081735;28;20040;-73
2023/03/11 10:01:29;;;;;;;7.35;1.60;;;8.50;99.50;;;;;;5093250;28;20055;-76
2023/03/11 10:04:00;;;;;;;6.88;1.48;;;8.50;99.90;;;;;;5085225;28;20048;-75
2023/03/11 10:06:28;;;;;;;5.43;1.50;;;8.50;99.90;;;;;;5087083;28;20051;-78
2023/03/11 10:09:15;;;;;;;6.45;1.40;;;8.50;99.90;;;;;;5110868;28;20059;-76
2023/03/11 10:12:05;;;;;;;7.38;1.60;;;8.50;99.90;;;;;;5079707;28;20040;-77
2023/03/11 10:14:46;;;;;;;7.40;1.50;;;8.50;99.90;;;;;;5094566;28;20051;-76
2023/03/11 10:17:34;;;;;;;5.07;1.42;;;8.60;99.90;;;;;;5078327;28;20515;-76
2023/03/11 10:19:59;;;;;;;5.43;1.38;;;8.60;99.60;;;;;;5078814;28;20128;-75
2023/03/11 10:22:44;;;;;;;7.13;2.42;;;8.80;99.90;;;;;;5093249;28;20127;-75
2023/03/11 10:25:24;;;;;;;7.28;1.65;;;8.90;99.30;;;;;;5078338;28;20044;-76
2023/03/11 10:28:04;;;;;;;6.63;1.70;;;9.10;99.40;;;;;;5084177;28;20365;-77
2023/03/11 10:30:35;;;;;;;5.63;1.67;;;9.30;99.80;;;;;;5075655;28;20536;-76
2023/03/11 10:33:04;;;;;;;6.32;1.73;;;9.30;99.50;;;;;;5082351;28;20480;-76
2023/03/11 10:35:39;;;;;;;5.57;1.70;;;9.30;99.00;;;;;;5088999;28;20047;-77
2023/03/11 10:38:14;;;;;;;6.68;1.80;;;9.40;98.00;;;;;;5084318;28;20079;-78
2023/03/11 10:40:42;;;;;;;8.18;3.63;;;9.40;98.50;;;;;;5074641;28;20044;-77
2023/03/11 10:43:13;;;;;;;5.45;2.40;;;9.40;99.70;;;;;;5078405;28;20399;-78
2023/03/11 10:45:43;;;;;;;9.70;5.10;;;9.40;99.90;;;;;;5083963;28;20053;-77
2023/03/11 10:48:19;;;;;;;9.30;1.90;;;9.50;98.30;;;;;;5073177;28;20075;-77
2023/03/11 10:50:47;;;;;;;6.13;1.80;;;9.60;97.00;;;;;;5075908;28;20059;-77
2023/03/11 10:53:16;;;;;;;6.82;1.58;;;9.50;97.80;;;;;;5079026;28;20067;-77
2023/03/11 10:55:48;;;;;;;6.15;1.90;;;9.60;99.00;;;;;;5084845;28;20059;-78
2023/03/11 10:58:28;;;;;;;9.68;4.10;;;9.50;98.90;;;;;;5085228;28;20450;-78
2023/03/11 11:01:09;;;;;;;8.07;2.00;;;9.50;98.50;;;;;;5065471;28;20395;-78
2023/03/11 11:03:35;;;;;;;7.55;1.70;;;9.70;98.70;;;;;;5074704;28;20036;-79
2023/03/11 11:06:06;;;;;;;5.95;1.70;;;9.70;98.10;;;;;;5074046;28;20396;-79
2023/03/11 11:08:33;;;;;;;9.98;3.40;;;9.70;98.50;;;;;;5073447;28;20450;-79
2023/03/11 11:11:01;;;;;;;6.30;2.00;;;9.70;98.30;;;;;;5082924;28;20080;-78
2023/03/11 11:13:30;;;;;;;7.60;2.03;;;9.80;98.20;;;;;;5076432;28;20055;-79
2023/03/11 11:16:19;;;;;;;9.52;2.10;;;9.80;98.30;;;;;;5072305;28;20090;-79
2023/03/11 11:18:59;;;;;;;8.10;2.20;;;9.60;96.90;;;;;;5074803;28;20483;-78
2023/03/11 11:21:36;;;;;;;6.32;1.90;;;9.60;97.70;;;;;;5074246;28;20052;-79
2023/03/11 11:24:19;;;;;;;7.13;1.95;;;9.70;97.20;;;;;;5085917;28;20457;-79
2023/03/11 11:27:25;;;;;;;7.03;2.03;;;9.60;96.80;;;;;;5085756;28;20052;-79
2023/03/11 11:30:07;;;;;;;6.78;1.70;;;9.50;96.40;;;;;;5066017;28;20143;-78
2023/03/11 11:32:33;;;;;;;7.25;1.65;;;9.50;96.00;;;;;;5073172;28;20523;-78
2023/03/11 11:35:01;;;;;;;4.70;1.45;;;9.40;96.90;;;;;;5085058;28;20141;-78
2023/03/11 11:37:30;;;;;;;6.05;1.48;;;9.20;95.20;;;;;;5088645;28;20427;-78
2023/03/11 11:40:09;;;;;;;7.63;1.88;;;9.20;96.40;;;;;;5072875;28;20101;-78
2023/03/11 11:42:37;;;;;;;6.60;1.42;;;8.90;95.60;;;;;;5090176;28;20058;-79
2023/03/11 11:45:30;;;;;;;6.20;1.70;;;8.90;96.60;;;;;;5072717;28;20489;-78
2023/03/11 11:47:59;;;;;;;7.50;1.70;;;8.90;96.00;;;;;;5061405;28;20182;-83
2023/03/11 11:50:31;;;;;;;7.40;1.83;;;8.70;96.60;;;;;;5078808;28;20048;-78
2023/03/11 11:53:41;;;;;;;6.85;1.60;;;8.70;97.30;;;;;;5091717;28;20059;-78
2023/03/11 11:56:06;;;;;;;5.30;1.80;;;8.70;97.20;;;;;;5071438;28;20048;-79
2023/03/11 11:58:33;;;;;;;5.97;1.42;;;8.70;98.00;;;;;;5091815;28;20055;-79
2023/03/11 12:01:18;;;;;;;6.03;1.50;;;8.70;97.70;;;;;;5091712;28;20044;-79
2023/03/11 12:04:25;;;;;;;6.72;1.52;;;8.60;97.50;;;;;;5091267;28;20074;-79
2023/03/11 12:07:31;;;;;;;8.23;1.50;;;8.60;98.40;;;;;;5057685;28;20143;-78
2023/03/11 12:10:21;;;;;;;6.95;1.60;;;8.70;95.50;;;;;;5092559;28;20044;-79
2023/03/11 12:13:00;;;;;;;6.68;1.55;;;8.60;97.50;;;;;;5080320;28;20496;-77
2023/03/11 12:15:37;;;;;;;8.10;1.77;;;8.30;97.10;;;;;;5074459;28;20051;-78
2023/03/11 12:18:12;;;;;;;9.32;1.50;;;8.10;96.90;;;;;;5090931;28;20062;-78
2023/03/11 12:20:44;;;;;;;6.88;1.58;;;8.10;97.70;;;;;;5073236;28;20509;-78
2023/03/11 12:23:33;;;;;;;7.82;1.70;;;8.00;98.90;;;;;;5083782;28;20051;-78
2023/03/11 12:26:04;;;;;;;4.15;1.38;;;8.00;99.00;;;;;;5060010;28;20044;-78
2023/03/11 12:28:54;;;;;;;5.80;1.50;;;8.00;98.90;;;;;;5090536;28;20082;-78
2023/03/11 12:31:23;;;;;;;4.88;1.20;;;7.90;96.20;;;;;;5096213;28;20400;-78
2023/03/11 12:33:55;;;;;;;7.13;1.40;;;7.80;96.30;;;;;;5090973;28;20048;-78
2023/03/11 12:36:30;;;;;;;4.72;1.10;;;7.80;96.70;;;;;;5106477;28;20040;-80
2023/03/11 12:38:58;;;;;;;6.65;1.40;;;7.60;97.70;;;;;;5072744;28;20048;-79
2023/03/11 12:41:41;;;;;;;6.95;1.42;;;7.60;98.30;;;;;;5083218;28;20044;-79
2023/03/11 12:44:23;;;;;;;5.55;1.20;;;7.60;97.90;;;;;;5061619;28;20048;-79
2023/03/11 12:46:52;;;;;;;;;;;7.60;98.60;;;;;;5085950;28;20438;-79
2023/03/11 12:49:32;;;;;;;5.63;1.02;;;7.60;97.80;;;;;;5072186;28;19920;-79
2023/03/11 12:52:12;;;;;;;4.32;1.00;;;7.60;98.10;;;;;;5075799;28;20048;-77
2023/03/11 12:54:43;;;;;;;4.22;1.23;;;7.70;98.00;;;;;;5079069;28;20076;-78
2023/03/11 12:57:15;;;;;;;5.50;1.30;;;7.70;98.00;;;;;;5090464;28;20051;-78
2023/03/11 12:59:59;;;;;;;8.63;1.50;;;7.60;97.60;;;;;;5076963;28;20048;-78
2023/03/11 13:02:36;;;;;;;8.80;1.70;;;7.60;97.20;;;;;;5081175;28;20511;-79
2023/03/11 13:05:28;;;;;;;5.95;1.50;;;7.40;97.70;;;;;;5089573;28;20069;-78